Time;durP1;ratioP1;P1;durP2;ratioP2;P2;SDS_P1;SDS_P2;PMS_P1;PMS_P2;Temp;Humidity;BMP_temperature;BMP_pressure;BME280_temperature;BME280_humidity;BME280_pressure;Samples;Min_cycle;Max_cycle;Signal;HPM_P1;HPM_P2
2021/10/22 00:00:33;;;;;;;1.33;1.02;;;;;;;14.38;67.92;100271.41;4846158;29;20458;-59
2021/10/22 00:02:59;;;;;;;2.80;1.00;;;;;;;14.35;67.34;100272.28;4846188;29;20094;-58
2021/10/22 00:05:24;;;;;;;1.88;1.15;;;;;;;14.38;66.73;100271.41;4846097;29;20078;-58
2021/10/22 00:07:49;;;;;;;1.20;0.55;;;;;;;14.37;66.96;100261.34;4845745;29;20331;-58
2021/10/22 00:10:15;;;;;;;1.50;0.70;;;;;;;14.34;66.14;100264.22;4844870;29;20046;-58
2021/10/22 00:12:40;;;;;;;1.42;0.75;;;;;;;14.35;66.11;100258.16;4846026;29;20025;-56
2021/10/22 00:15:08;;;;;;;8.27;0.80;;;;;;;14.37;66.10;100255.69;4845738;29;20052;-58
2021/10/22 00:17:35;;;;;;;2.15;0.90;;;;;;;14.37;65.71;100241.53;4845862;29;20030;-59
2021/10/22 00:20:00;;;;;;;0.50;0.50;;;;;;;14.39;65.35;100256.03;4845744;29;20328;-58
2021/10/22 00:22:25;;;;;;;1.63;0.80;;;;;;;14.37;65.04;100250.03;4845276;29;20078;-58
2021/10/22 00:24:51;;;;;;;1.27;0.75;;;;;;;14.37;65.16;100252.84;4845680;29;20323;-58
2021/10/22 00:27:16;;;;;;;2.58;0.52;;;;;;;14.37;64.62;100281.13;4845754;29;20095;-58
2021/10/22 00:29:41;;;;;;;1.52;0.60;;;;;;;14.38;64.47;100287.59;4829167;29;20030;-59
2021/10/22 00:32:07;;;;;;;1.40;0.57;;;;;;;14.37;64.76;100275.47;4845397;29;20049;-58
2021/10/22 00:34:32;;;;;;;1.35;0.70;;;;;;;14.39;64.82;100275.84;4845727;29;20060;-58
2021/10/22 00:36:58;;;;;;;2.47;0.70;;;;;;;14.38;63.78;100279.09;4845049;29;20334;-58
2021/10/22 00:39:24;;;;;;;2.10;0.82;;;;;;;14.42;63.96;100277.78;4845500;29;20113;-57
2021/10/22 00:41:50;;;;;;;2.30;0.75;;;;;;;14.41;64.30;100264.09;4845271;29;20025;-58
2021/10/22 00:44:15;;;;;;;2.20;1.10;;;;;;;14.41;63.75;100252.78;4845402;29;20033;-58
2021/10/22 00:46:41;;;;;;;5.15;1.20;;;;;;;14.37;63.85;100258.50;4845235;29;20030;-58
2021/10/22 00:49:12;;;;;;;2.72;1.30;;;;;;;14.36;64.20;100256.91;4845650;29;20026;-58
2021/10/22 00:51:39;;;;;;;3.20;1.55;;;;;;;14.34;64.19;100252.91;4844896;29;20046;-58
2021/10/22 00:54:06;;;;;;;3.80;1.48;;;;;;;14.33;64.55;100249.28;4845205;29;20450;-58
2021/10/22 00:56:32;;;;;;;2.25;0.95;;;;;;;14.31;64.91;100246.09;4845314;29;20045;-58
2021/10/22 00:58:58;;;;;;;1.88;1.27;;;;;;;14.27;65.47;100251.03;4844877;29;20384;-59
2021/10/22 01:01:23;;;;;;;3.38;1.30;;;;;;;14.22;64.99;100251.50;4845069;29;20025;-58
2021/10/22 01:03:48;;;;;;;3.15;1.30;;;;;;;14.17;65.68;100255.63;4844855;29;20338;-57
2021/10/22 01:06:14;;;;;;;5.85;1.23;;;;;;;14.17;65.12;100266.13;4844931;29;20407;-58
2021/10/22 01:08:39;;;;;;;1.58;0.85;;;;;;;14.16;65.47;100270.19;4844635;29;20022;-59
2021/10/22 01:11:05;;;;;;;6.32;1.17;;;;;;;14.16;65.47;100273.00;4845023;29;20435;-58
2021/10/22 01:13:30;;;;;;;1.75;1.08;;;;;;;14.14;65.35;100267.00;4845002;29;20038;-58
2021/10/22 01:15:56;;;;;;;2.72;1.55;;;;;;;14.12;66.11;100263.81;4844461;29;20030;-58
2021/10/22 01:18:26;;;;;;;4.15;3.00;;;;;;;14.11;65.58;100263.00;4844706;29;20146;-58
2021/10/22 01:20:57;;;;;;;3.58;2.60;;;;;;;14.12;65.28;100269.47;4844496;29;20129;-58
2021/10/22 01:23:23;;;;;;;2.85;1.98;;;;;;;14.12;65.91;100275.91;4844734;29;20085;-58
2021/10/22 01:25:49;;;;;;;6.32;1.40;;;;;;;14.12;65.57;100275.09;4844867;29;20113;-59
2021/10/22 01:28:15;;;;;;;1.13;0.98;;;;;;;14.09;65.80;100270.31;4845021;29;20025;-58
2021/10/22 01:30:41;;;;;;;3.47;1.98;;;;;;;14.09;66.16;100267.50;4843686;29;20034;-58
2021/10/22 01:33:07;;;;;;;3.33;1.90;;;;;;;14.06;65.82;100276.84;4844654;29;20057;-58
2021/10/22 01:35:34;;;;;;;2.92;1.75;;;;;;;14.07;65.46;100267.13;4828591;29;20037;-58
2021/10/22 01:38:02;;;;;;;3.88;1.98;;;;;;;14.06;66.04;100260.69;4828212;29;20170;-57
2021/10/22 01:40:28;;;;;;;3.60;1.95;;;;;;;14.04;66.16;100253.84;4844675;29;20469;-58
2021/10/22 01:42:54;;;;;;;3.00;1.75;;;;;;;14.03;65.57;100260.75;4844368;29;20491;-58
2021/10/22 01:45:19;;;;;;;2.55;1.40;;;;;;;14.00;65.44;100253.91;4844089;29;20026;-58
2021/10/22 01:47:45;;;;;;;1.73;1.50;;;;;;;13.98;66.46;100253.56;4844408;29;20334;-57
2021/10/22 01:50:10;;;;;;;5.07;1.42;;;;;;;13.97;66.22;100257.59;4844280;29;20082;-57
2021/10/22 01:52:35;;;;;;;3.53;1.25;;;;;;;13.97;66.02;100253.94;4844683;29;20117;-58
2021/10/22 01:55:01;;;;;;;2.88;0.85;;;;;;;13.95;66.97;100260.03;4844119;29;20118;-57
2021/10/22 01:57:27;;;;;;;2.45;1.02;;;;;;;13.95;66.59;100259.25;4844829;29;20078;-57
2021/10/22 01:59:52;;;;;;;3.03;0.98;;;;;;;13.92;66.26;100264.53;4844377;29;20098;-58
2021/10/22 02:02:18;;;;;;;2.72;1.00;;;;;;;13.90;66.82;100266.97;4844240;29;20120;-58
2021/10/22 02:04:44;;;;;;;3.75;1.00;;;;;;;13.89;66.45;100271.03;4844241;29;20025;-57
2021/10/22 02:07:09;;;;;;;1.58;0.68;;;;;;;13.85;67.14;100267.47;4844184;29;20095;-58
2021/10/22 02:09:35;;;;;;;2.03;0.80;;;;;;;13.86;66.70;100280.38;4844486;29;20028;-58
2021/10/22 02:12:01;;;;;;;3.22;0.80;;;;;;;13.85;66.42;100280.81;4844351;29;20034;-58
2021/10/22 02:14:26;;;;;;;1.65;0.80;;;;;;;13.84;66.67;100282.03;4844467;29;20025;-58
2021/10/22 02:16:52;;;;;;;2.47;0.90;;;;;;;13.84;67.01;100282.81;4844233;29;20133;-58
2021/10/22 02:19:17;;;;;;;3.20;0.77;;;;;;;13.87;66.08;100292.47;4843666;29;20061;-57
2021/10/22 02:21:43;;;;;;;1.40;0.90;;;;;;;13.90;66.73;100297.25;4844283;29;20105;-58
2021/10/22 02:24:08;;;;;;;1.85;1.02;;;;;;;13.90;65.86;100311.38;4844204;29;20049;-58
2021/10/22 02:26:34;;;;;;;2.03;0.75;;;;;;;13.93;65.55;100288.72;4844231;29;20030;-58
2021/10/22 02:29:00;;;;;;;1.67;0.63;;;;;;;13.92;66.08;100295.59;4844060;29;20495;-58
2021/10/22 02:31:25;;;;;;;2.42;1.30;;;;;;;13.91;65.83;100308.13;4844334;29;20112;-57
2021/10/22 02:33:51;;;;;;;9.73;3.45;;;;;;;13.95;66.41;100310.91;4844105;29;20338;-58
2021/10/22 02:36:17;;;;;;;13.05;4.78;;;;;;;13.95;66.37;100307.28;4827906;29;20407;-58
2021/10/22 02:38:43;;;;;;;2.95;1.60;;;;;;;13.97;65.93;100304.81;4842196;29;20441;-58
2021/10/22 02:41:09;;;;;;;2.33;1.10;;;;;;;13.99;66.01;100308.84;4844383;29;20137;-58
2021/10/22 02:43:34;;;;;;;3.97;1.20;;;;;;;13.99;66.37;100310.88;4843867;29;20418;-58
2021/10/22 02:46:00;;;;;;;3.92;1.00;;;;;;;14.00;65.72;100312.47;4843873;29;20034;-58
2021/10/22 02:48:25;;;;;;;2.05;1.02;;;;;;;13.99;66.56;100322.19;4843745;29;20084;-57
2021/10/22 02:50:51;;;;;;;3.08;1.10;;;;;;;13.98;66.50;100320.56;4844148;29;20022;-58
2021/10/22 02:53:17;;;;;;;4.32;1.20;;;;;;;13.93;67.05;100314.16;4843922;29;20034;-58
2021/10/22 02:55:42;;;;;;;2.13;1.05;;;;;;;13.88;66.71;100316.66;4845620;29;20036;-58
2021/10/22 02:58:08;;;;;;;2.67;1.10;;;;;;;13.84;67.15;100328.03;4847181;29;20040;-58
2021/10/22 03:00:33;;;;;;;3.35;0.95;;;;;;;13.82;67.75;100330.47;4847145;29;20037;-58
2021/10/22 03:03:00;;;;;;;2.30;0.77;;;;;;;13.82;68.60;100335.34;4847246;29;20085;-57
2021/10/22 03:05:26;;;;;;;2.47;1.00;;;;;;;13.79;68.89;100342.63;4846884;29;20018;-58
2021/10/22 03:07:51;;;;;;;1.60;0.90;;;;;;;13.75;69.27;100332.63;4847375;29;20041;-58
2021/10/22 03:10:18;;;;;;;3.20;1.17;;;;;;;13.71;68.87;100324.19;4847042;29;20033;-57
2021/10/22 03:12:43;;;;;;;1.23;0.85;;;;;;;13.69;69.53;100337.94;4846928;29;20033;-58
2021/10/22 03:15:09;;;;;;;4.15;1.20;;;;;;;13.66;69.84;100338.78;4846903;29;20350;-59
2021/10/22 03:17:35;;;;;;;3.20;0.85;;;;;;;13.63;70.29;100322.69;4846902;29;20033;-58
2021/10/22 03:20:00;;;;;;;3.75;2.45;;;;;;;13.60;70.39;100323.53;4846632;29;20427;-58
2021/10/22 03:22:26;;;;;;;20.13;13.10;;;;;;;13.64;70.79;100327.09;4846636;29;20614;-56
2021/10/22 03:24:51;;;;;;;24.45;14.07;;;;;;;13.64;71.03;100329.94;4846801;29;20030;-54
2021/10/22 03:27:20;;;;;;;16.48;10.20;;;;;;;13.61;70.66;100340.06;4846664;29;20053;-57
2021/10/22 03:29:45;;;;;;;7.70;3.85;;;;;;;13.57;71.06;100335.69;4846594;29;20018;-58
2021/10/22 03:32:11;;;;;;;6.05;2.70;;;;;;;13.54;71.12;100333.72;4846514;29;20041;-59
2021/10/22 03:34:36;;;;;;;5.85;2.55;;;;;;;13.52;70.97;100330.53;4846626;29;20037;-59
2021/10/22 03:37:02;;;;;;;3.17;2.17;;;;;;;13.52;71.61;100331.31;4846405;29;20057;-59
2021/10/22 03:39:27;;;;;;;5.30;2.72;;;;;;;13.52;70.74;100328.50;4846416;29;20125;-58
2021/10/22 03:41:53;;;;;;;2.80;1.73;;;;;;;13.51;70.44;100321.25;4846526;29;20087;-58
2021/10/22 03:44:18;;;;;;;4.05;1.30;;;;;;;13.57;71.43;100321.56;4846328;29;20391;-60
2021/10/22 03:46:44;;;;;;;1.23;0.90;;;;;;;13.56;70.94;100328.44;4846076;29;20410;-60
2021/10/22 03:49:09;;;;;;;2.63;1.02;;;;;;;13.49;70.71;100326.53;4846442;29;20304;-60
2021/10/22 03:51:35;;;;;;;1.30;1.00;;;;;;;13.43;71.54;100333.88;4843889;29;20121;-61
2021/10/22 03:54:00;;;;;;;5.03;1.13;;;;;;;13.42;71.82;100332.28;4845941;29;20033;-60
2021/10/22 03:56:25;;;;;;;1.38;0.98;;;;;;;13.42;72.38;100339.91;4846192;29;20419;-60
2021/10/22 03:58:51;;;;;;;2.17;1.10;;;;;;;13.35;72.85;100335.16;4845953;29;20103;-70
2021/10/22 04:01:17;;;;;;;1.75;0.88;;;;;;;13.29;73.16;100343.31;4845700;29;20030;-60
2021/10/22 04:03:43;;;;;;;4.57;1.10;;;;;;;13.24;73.79;100346.59;4846037;29;20029;-61
2021/10/22 04:06:08;;;;;;;2.35;1.30;;;;;;;13.28;73.26;100350.19;4845206;29;20107;-58
2021/10/22 04:08:34;;;;;;;2.80;0.90;;;;;;;13.27;73.73;100347.78;4845772;29;20415;-63
2021/10/22 04:10:59;;;;;;;3.63;1.40;;;;;;;13.22;74.07;100349.06;4845785;29;20762;-59
2021/10/22 04:13:24;;;;;;;2.53;1.20;;;;;;;13.21;74.11;100347.47;4845896;29;20030;-56
2021/10/22 04:15:50;;;;;;;5.20;1.00;;;;;;;13.21;74.27;100358.75;4845451;29;20037;-62
2021/10/22 04:18:15;;;;;;;3.63;1.33;;;;;;;13.18;74.05;100353.94;4838050;29;20054;-55
2021/10/22 04:20:42;;;;;;;3.30;1.35;;;;;;;13.16;74.06;100352.75;4838775;29;20030;-59
2021/10/22 04:23:08;;;;;;;4.78;1.20;;;;;;;13.14;73.20;100347.50;4843364;29;20029;-61
2021/10/22 04:25:34;;;;;;;2.22;1.10;;;;;;;13.17;73.35;100345.88;4842411;29;20072;-54
2021/10/22 04:28:00;;;;;;;3.05;1.30;;;;;;;13.15;73.79;100354.75;4836302;29;20383;-52
2021/10/22 04:30:26;;;;;;;4.32;1.13;;;;;;;13.15;73.86;100351.13;4841602;29;20022;-51
2021/10/22 04:32:52;;;;;;;1.73;1.20;;;;;;;13.12;74.24;100355.56;4805003;29;20100;-60
2021/10/22 04:35:18;;;;;;;2.05;1.08;;;;;;;13.10;74.26;100352.38;4845751;29;20061;-57
2021/10/22 04:40:31;;;;;;;3.92;1.10;;;;;;;13.07;74.96;100344.75;4845531;29;20037;-52
2021/10/22 04:42:59;;;;;;;4.85;1.27;;;;;;;13.07;74.77;100339.13;4841144;29;20022;-58
2021/10/22 04:45:25;;;;;;;6.10;2.70;;;;;;;13.08;74.23;100340.72;4823365;29;20046;-61
2021/10/22 04:47:51;;;;;;;5.93;2.50;;;;;;;13.09;73.80;100342.31;4840662;29;20330;-54
2021/10/22 04:50:16;;;;;;;3.95;2.38;;;;;;;13.12;73.95;100344.28;4845375;29;20100;-59
2021/10/22 04:52:42;;;;;;;4.20;1.75;;;;;;;13.14;74.04;100347.50;4844516;29;20040;-59
2021/10/22 04:55:09;;;;;;;3.25;1.60;;;;;;;13.12;73.85;100338.66;4829845;29;20040;-61
2021/10/22 04:57:35;;;;;;;2.28;1.20;;;;;;;13.11;73.66;100348.34;4829034;29;20045;-61
2021/10/22 05:00:01;;;;;;;3.28;1.58;;;;;;;13.10;73.67;100352.38;4779179;29;20049;-53
2021/10/22 05:02:26;;;;;;;1.73;1.10;;;;;;;13.09;73.66;100350.78;4796031;29;20049;-60
2021/10/22 05:04:51;;;;;;;3.20;1.33;;;;;;;13.09;73.90;100356.41;4835223;29;20327;-60
2021/10/22 05:07:17;;;;;;;4.13;1.50;;;;;;;13.07;73.91;100358.88;4838889;29;20037;-60
2021/10/22 05:09:42;;;;;;;5.70;2.60;;;;;;;13.08;73.53;100360.47;4844617;29;20060;-58
2021/10/22 05:12:07;;;;;;;7.03;3.08;;;;;;;13.09;73.50;100364.88;4844999;29;20030;-59
2021/10/22 05:14:34;;;;;;;9.55;3.97;;;;;;;13.10;73.23;100362.88;4844767;29;20325;-58
2021/10/22 05:17:00;;;;;;;8.43;2.75;;;;;;;13.09;73.15;100370.53;4844433;29;20026;-59
2021/10/22 05:19:27;;;;;;;3.80;1.73;;;;;;;13.08;73.01;100373.78;4827663;29;20431;-59
2021/10/22 05:21:52;;;;;;;5.07;1.45;;;;;;;13.08;72.80;100371.75;4844896;29;20038;-55
2021/10/22 05:24:17;;;;;;;4.40;1.20;;;;;;;13.09;73.37;100379.00;4844898;29;20440;-56
2021/10/22 05:26:43;;;;;;;6.10;1.38;;;;;;;13.07;73.38;100380.63;4844617;29;20021;-60
2021/10/22 05:29:08;;;;;;;2.70;1.08;;;;;;;13.08;73.18;100377.41;4844356;29;20030;-61
2021/10/22 05:31:34;;;;;;;2.90;1.60;;;;;;;13.06;73.11;100379.84;4845081;29;20026;-57
2021/10/22 05:33:59;;;;;;;2.85;1.60;;;;;;;13.05;73.50;100383.88;4844358;29;20037;-58
2021/10/22 05:36:24;;;;;;;4.25;1.77;;;;;;;13.03;73.95;100388.34;4844729;29;20352;-55
2021/10/22 05:38:51;;;;;;;3.38;1.40;;;;;;;13.04;74.01;100387.13;4844419;29;20375;-59
2021/10/22 05:41:17;;;;;;;5.50;1.98;;;;;;;13.03;73.67;100385.53;4828368;29;20026;-56
2021/10/22 05:43:42;;;;;;;4.13;1.65;;;;;;;13.02;73.86;100384.72;4844528;29;20074;-61
2021/10/22 05:46:08;;;;;;;2.97;1.55;;;;;;;13.01;73.56;100397.22;4844323;29;20410;-61
2021/10/22 05:48:33;;;;;;;4.13;1.98;;;;;;;13.03;74.38;100397.59;4844555;29;20053;-60
2021/10/22 05:50:58;;;;;;;7.50;2.25;;;;;;;13.03;73.90;100414.53;4844583;29;20061;-59
2021/10/22 05:53:24;;;;;;;6.97;3.45;;;;;;;13.04;74.01;100421.78;4844656;29;20094;-59
2021/10/22 05:55:49;;;;;;;10.82;5.13;;;;;;;13.04;74.40;100430.25;4844633;29;20026;-59
2021/10/22 05:58:14;;;;;;;10.68;5.30;;;;;;;13.07;73.98;100439.91;4844050;29;20029;-58
2021/10/22 06:00:41;;;;;;;10.80;6.65;;;;;;;13.08;73.65;100442.31;4844654;29;20057;-57
2021/10/22 06:03:07;;;;;;;13.48;7.95;;;;;;;13.10;73.78;100445.50;4844413;29;20030;-61
2021/10/22 06:05:32;;;;;;;17.30;9.30;;;;;;;13.11;73.82;100432.19;4844393;29;20085;-59
2021/10/22 06:07:58;;;;;;;16.30;9.23;;;;;;;13.12;73.63;100431.78;4844454;29;20177;-56
2021/10/22 06:10:23;;;;;;;16.50;8.20;;;;;;;13.12;73.62;100422.50;4844329;29;20030;-60
2021/10/22 06:12:49;;;;;;;12.15;5.45;;;;;;;13.12;73.57;100434.59;4844216;29;20422;-59
2021/10/22 06:15:14;;;;;;;8.77;4.03;;;;;;;13.12;73.84;100439.44;4844185;29;20419;-60
2021/10/22 06:17:40;;;;;;;8.50;3.50;;;;;;;13.12;74.31;100448.69;4844572;29;20034;-57
2021/10/22 06:20:11;;;;;;;7.88;3.25;;;;;;;13.13;73.98;100444.66;4843798;29;20346;-59
2021/10/22 06:23:52;;;;;;;8.20;4.22;;;;;;;13.15;74.43;100449.91;4844710;29;20030;-58
2021/10/22 06:25:25;;;;;;;6.90;3.95;;;;;;;13.16;73.85;100459.97;4843680;29;20030;-61
2021/10/22 06:27:52;;;;;;;9.52;4.93;;;;;;;13.17;74.06;100451.13;4844254;29;20415;-55
2021/10/22 06:30:18;;;;;;;5.22;3.05;;;;;;;13.19;73.35;100462.78;4845646;29;20067;-61
2021/10/22 06:32:43;;;;;;;7.75;2.97;;;;;;;13.22;73.68;100458.31;4847806;29;20064;-59
2021/10/22 06:35:08;;;;;;;4.55;2.38;;;;;;;13.24;73.78;100465.16;4847987;29;20086;-57
2021/10/22 06:37:34;;;;;;;7.85;3.85;;;;;;;13.26;73.12;100479.66;4831349;29;20022;-55
2021/10/22 06:39:59;;;;;;;22.55;8.45;;;;;;;13.28;72.59;100470.75;4847317;29;20034;-57
2021/10/22 06:42:25;;;;;;;36.88;14.45;;;;;;;13.32;72.46;100484.84;4847312;29;20030;-60
2021/10/22 06:44:50;;;;;;;29.63;12.43;;;;;;;13.33;72.61;100475.94;4847452;29;20118;-58
2021/10/22 06:47:16;;;;;;;22.75;9.32;;;;;;;13.37;72.15;100484.38;4847439;29;20034;-57
2021/10/22 06:49:41;;;;;;;23.58;11.57;;;;;;;13.42;71.44;100481.09;4847499;29;20087;-59
2021/10/22 06:52:07;;;;;;;12.13;5.60;;;;;;;13.46;71.45;100479.03;4847561;29;20034;-59
2021/10/22 06:54:32;;;;;;;4.50;2.35;;;;;;;13.49;71.97;100486.66;4847058;29;20025;-59
2021/10/22 06:56:57;;;;;;;4.53;2.15;;;;;;;13.50;72.53;100499.56;4847336;29;20049;-59
2021/10/22 06:59:23;;;;;;;9.40;2.92;;;;;;;13.50;72.05;100508.84;4847258;29;20044;-59
2021/10/22 07:01:48;;;;;;;3.50;2.28;;;;;;;13.54;72.29;100500.31;4847084;29;20033;-61
2021/10/22 07:04:14;;;;;;;3.70;2.30;;;;;;;13.55;72.41;100502.72;4847288;29;20049;-59
2021/10/22 07:09:24;;;;;;;3.00;1.40;;;;;;;13.61;71.64;100517.19;4846990;29;20082;-57
2021/10/22 07:11:50;;;;;;;3.38;1.50;;;;;;;13.66;71.10;100518.75;4846797;29;20034;-60
2021/10/22 07:14:16;;;;;;;6.70;2.47;;;;;;;13.68;71.19;100521.94;4847152;29;20036;-60
2021/10/22 07:16:42;;;;;;;2.47;1.90;;;;;;;13.71;71.41;100516.28;4847072;29;20026;-59
2021/10/22 07:19:07;;;;;;;11.90;6.28;;;;;;;13.74;71.02;100515.44;4846629;29;20046;-53
2021/10/22 07:21:37;;;;;;;7.88;5.10;;;;;;;13.75;71.43;100517.03;4846989;29;20034;-58
2021/10/22 07:24:10;;;;;;;20.15;10.88;;;;;;;13.79;70.98;100522.63;4846468;29;20029;-58
2021/10/22 07:26:36;;;;;;;25.90;15.82;;;;;;;13.81;70.96;100521.00;4847079;29;20037;-58
2021/10/22 07:29:01;;;;;;;18.10;11.38;;;;;;;13.85;71.02;100518.91;4846844;29;20033;-60
2021/10/22 07:31:26;;;;;;;14.18;7.70;;;;;;;13.89;71.13;100527.34;4847010;29;20036;-54
2021/10/22 07:33:52;;;;;;;15.88;7.90;;;;;;;13.91;71.30;100528.53;4846284;29;20304;-61
2021/10/22 07:36:17;;;;;;;19.83;10.57;;;;;;;13.96;71.01;100538.56;4846815;29;20044;-59
2021/10/22 07:38:43;;;;;;;12.68;6.43;;;;;;;14.01;70.67;100534.50;4829915;29;20074;-54
2021/10/22 07:41:09;;;;;;;4.60;1.80;;;;;;;14.03;69.56;100530.00;4846020;29;20082;-58
2021/10/22 07:43:36;;;;;;;4.45;1.50;;;;;;;14.05;100.00;100538.88;4846542;29;20105;-60
2021/10/22 07:46:02;;;;;;;4.13;1.60;;;;;;;14.06;68.80;100531.19;4846464;29;20033;-58
2021/10/22 07:48:27;;;;;;;4.65;1.85;;;;;;;14.07;69.55;100538.44;4846462;29;20026;-60
2021/10/22 07:50:52;;;;;;;5.30;1.50;;;;;;;14.09;68.71;100536.00;4846192;29;20049;-54
2021/10/22 07:53:18;;;;;;;3.80;1.05;;;;;;;14.11;69.01;100530.72;4846082;29;20069;-59
2021/10/22 07:55:44;;;;;;;3.58;1.20;;;;;;;14.11;67.55;100533.53;4846427;29;20323;-55
2021/10/22 07:58:10;;;;;;;5.35;1.80;;;;;;;14.11;68.67;100527.88;4845975;29;20407;-60
2021/10/22 08:00:36;;;;;;;2.80;1.30;;;;;;;14.12;68.35;100523.84;4846321;29;20109;-58
2021/10/22 08:03:01;;;;;;;3.28;1.60;;;;;;;14.14;68.53;100533.50;4846003;29;20402;-59
2021/10/22 08:05:26;;;;;;;3.08;1.40;;;;;;;14.16;68.96;100531.03;4846093;29;20120;-59
2021/10/22 08:07:52;;;;;;;6.97;1.75;;;;;;;14.18;69.12;100527.78;4845961;29;20037;-59
2021/10/22 08:10:18;;;;;;;4.85;1.25;;;;;;;14.23;69.53;100530.13;4845904;29;20078;-59
2021/10/22 08:12:44;;;;;;;5.05;1.40;;;;;;;14.28;68.91;100535.34;4846333;29;20055;-59
2021/10/22 08:15:09;;;;;;;3.60;1.25;;;;;;;14.33;68.67;100529.22;4845561;29;20125;-60
2021/10/22 08:17:35;;;;;;;3.42;1.38;;;;;;;14.41;68.43;100536.34;4846242;29;20125;-59
2021/10/22 08:20:10;;;;;;;3.85;1.50;;;;;;;14.52;68.82;100533.44;4845531;29;20050;-54
2021/10/22 08:22:36;;;;;;;3.22;1.25;;;;;;;14.67;67.52;100536.81;4845812;29;20025;-58
2021/10/22 08:25:05;;;;;;;2.55;1.30;;;;;;;14.76;67.34;100539.91;4845762;29;20030;-56
2021/10/22 08:27:42;;;;;;;2.97;1.55;;;;;;;14.82;68.06;100538.22;4845681;29;20095;-61
2021/10/22 08:30:10;;;;;;;2.75;1.65;;;;;;;14.87;67.58;100528.44;4845713;29;20029;-60
2021/10/22 08:32:36;;;;;;;3.58;1.45;;;;;;;14.93;66.48;100536.00;4845610;29;20026;-58
2021/10/22 08:35:03;;;;;;;3.47;1.40;;;;;;;15.05;68.10;100532.56;4845515;29;20033;-59
2021/10/22 08:37:29;;;;;;;4.55;1.58;;;;;;;15.20;66.92;100532.34;4845274;29;20041;-59
2021/10/22 08:39:55;;;;;;;2.63;1.60;;;;;;;15.28;65.69;100531.75;4845447;29;20034;-53
2021/10/22 08:42:23;;;;;;;4.38;1.60;;;;;;;15.36;66.02;100538.13;4845262;29;20419;-59
2021/10/22 08:44:53;;;;;;;6.50;1.65;;;;;;;15.42;65.18;100536.38;4845457;29;20049;-59
2021/10/22 08:47:26;;;;;;;5.63;1.45;;;;;;;15.51;65.14;100539.44;4845433;29;20343;-61
2021/10/22 08:49:55;;;;;;;5.18;1.75;;;;;;;15.59;64.84;100542.97;4845212;29;20122;-60
2021/10/22 08:52:20;;;;;;;2.55;1.27;;;;;;;15.69;65.29;100542.78;4845155;29;20061;-55
2021/10/22 08:54:46;;;;;;;4.95;1.42;;;;;;;15.87;64.11;100541.63;4845289;29;20335;-60
2021/10/22 08:57:11;;;;;;;3.55;1.25;;;;;;;16.01;64.69;100538.50;4845349;29;20022;-55
2021/10/22 08:59:37;;;;;;;2.75;1.70;;;;;;;16.15;64.39;100543.06;4845306;29;20427;-57
2021/10/22 09:02:16;;;;;;;3.88;2.08;;;;;;;16.23;63.47;100539.66;4845109;29;20427;-56
2021/10/22 09:04:49;;;;;;;2.33;1.45;;;;;;;16.28;62.51;100529.84;4844900;29;20066;-60
2021/10/22 09:07:21;;;;;;;3.40;1.40;;;;;;;16.32;62.89;100525.66;4845108;29;20330;-52
2021/10/22 09:10:07;;;;;;;3.20;1.40;;;;;;;16.34;62.67;100516.72;4844730;29;20053;-60
2021/10/22 09:12:46;;;;;;;6.22;1.77;;;;;;;16.38;62.36;100518.25;4845371;29;20101;-56
2021/10/22 09:15:14;;;;;;;5.10;1.88;;;;;;;16.38;62.58;100528.78;4844791;29;20033;-61
2021/10/22 09:17:42;;;;;;;3.67;1.70;;;;;;;16.41;62.31;100527.91;4845280;29;20022;-59
2021/10/22 09:20:10;;;;;;;6.53;1.80;;;;;;;16.44;62.09;100537.59;4844140;29;20064;-60
2021/10/22 09:22:36;;;;;;;3.05;1.48;;;;;;;16.48;61.95;100524.13;4844992;29;20036;-61
2021/10/22 09:25:11;;;;;;;2.45;1.70;;;;;;;16.56;61.71;100528.41;4845099;29;20030;-49
2021/10/22 09:27:44;;;;;;;3.63;1.77;;;;;;;16.64;60.74;100521.31;4844818;29;20025;-59
2021/10/22 09:30:41;;;;;;;4.50;1.48;;;;;;;16.70;60.02;100533.75;4844953;29;20026;-61
2021/10/22 09:33:12;;;;;;;5.70;1.75;;;;;;;16.76;60.30;100529.16;4844917;29;20041;-62
2021/10/22 09:35:55;;;;;;;3.20;1.58;;;;;;;16.79;59.61;100536.81;4844676;29;20097;-57
2021/10/22 09:38:27;;;;;;;4.18;1.83;;;;;;;16.87;60.31;100532.53;4844646;29;20030;-59
2021/10/22 09:41:04;;;;;;;2.65;1.67;;;;;;;17.00;58.63;100526.97;4844505;29;20045;-51
2021/10/22 09:43:35;;;;;;;5.57;1.70;;;;;;;17.11;58.74;100527.50;4844818;29;20022;-59
2021/10/22 09:46:21;;;;;;;4.53;1.60;;;;;;;17.16;58.10;100531.81;4844539;29;20155;-60
2021/10/22 09:48:57;;;;;;;5.50;1.60;;;;;;;17.17;57.54;100528.53;4844557;29;20022;-56
2021/10/22 09:51:30;;;;;;;2.40;1.33;;;;;;;17.22;57.74;100527.19;4844489;29;20419;-57
2021/10/22 09:54:10;;;;;;;3.40;1.15;;;;;;;17.35;57.64;100528.09;4844440;29;20038;-61
2021/10/22 09:56:43;;;;;;;3.88;0.90;;;;;;;17.47;56.12;100527.34;4844437;29;20431;-59
2021/10/22 09:59:16;;;;;;;4.97;1.63;;;;;;;17.64;55.73;100525.28;4844298;29;20042;-58
2021/10/22 10:01:43;;;;;;;5.18;1.02;;;;;;;17.81;55.36;100526.06;4844397;29;20034;-59
2021/10/22 10:04:10;;;;;;;1.48;0.70;;;;;;;17.96;55.45;100518.72;4844293;29;20090;-60
2021/10/22 10:06:37;;;;;;;4.57;1.10;;;;;;;18.18;54.00;100528.22;4847909;29;20033;-59
2021/10/22 10:09:06;;;;;;;4.97;0.80;;;;;;;18.27;50.26;100519.00;4848274;29;20030;-57
2021/10/22 10:11:32;;;;;;;1.77;0.63;;;;;;;18.25;49.08;100515.03;4848272;29;20038;-57
2021/10/22 10:14:00;;;;;;;3.97;0.63;;;;;;;18.20;48.07;100513.53;4847976;29;20022;-60
2021/10/22 10:16:26;;;;;;;3.17;0.98;;;;;;;18.18;49.24;100511.16;4847982;29;20033;-56
2021/10/22 10:18:55;;;;;;;3.35;0.85;;;;;;;18.31;49.93;100507.50;4847522;29;20350;-50
2021/10/22 10:21:23;;;;;;;2.03;0.70;;;;;;;18.46;49.32;100514.38;4847840;29;20033;-56
2021/10/22 10:23:51;;;;;;;2.63;0.52;;;;;;;18.51;47.91;100511.75;4847717;29;20040;-53
2021/10/22 10:26:20;;;;;;;3.42;0.73;;;;;;;18.59;48.19;100495.22;4848016;29;20026;-58
2021/10/22 10:28:46;;;;;;;0.68;0.50;;;;;;;18.71;47.95;100508.72;4847820;29;20062;-59
2021/10/22 10:31:33;;;;;;;8.10;2.15;;;;;;;18.86;46.18;100500.50;4847993;29;20026;-59
2021/10/22 10:34:00;;;;;;;5.00;1.20;;;;;;;18.93;46.09;100503.13;4847698;29;20037;-60
2021/10/22 10:36:56;;;;;;;2.97;0.65;;;;;;;19.01;46.16;100495.13;4847773;29;20418;-61
2021/10/22 10:39:46;;;;;;;2.60;0.80;;;;;;;19.04;45.85;100497.84;4828400;29;20135;-58
2021/10/22 10:42:22;;;;;;;2.75;1.08;;;;;;;19.09;46.13;100497.28;4847272;29;20302;-55
2021/10/22 10:44:50;;;;;;;3.90;0.73;;;;;;;19.10;45.09;100492.38;4831147;29;20025;-59
2021/10/22 10:47:30;;;;;;;1.70;0.80;;;;;;;19.07;44.16;100487.59;4847513;29;20030;-58
2021/10/22 10:49:57;;;;;;;5.93;0.88;;;;;;;19.08;43.85;100477.78;4847500;29;20092;-58
2021/10/22 10:52:38;;;;;;;3.67;0.80;;;;;;;19.08;43.72;100489.19;4847813;29;20034;-57
2021/10/22 10:55:30;;;;;;;4.37;1.07;;;;;;;19.07;43.31;100498.97;4847321;29;20112;-57
2021/10/22 10:58:00;;;;;;;6.13;0.77;;;;;;;19.06;42.84;100488.84;4847170;29;20026;-58
2021/10/22 11:00:31;;;;;;;0.98;0.50;;;;;;;19.07;44.00;100484.75;4847604;29;20073;-60
2021/10/22 11:03:03;;;;;;;;;;;;;;;19.09;44.04;100485.88;4847656;29;20461;-58
2021/10/22 11:08:25;;;;;;;3.97;1.02;;;;;;;19.19;43.79;100466.03;4846875;29;20042;-58
2021/10/22 11:11:10;;;;;;;2.45;0.75;;;;;;;19.20;43.57;100467.63;4846972;29;20030;-59
2021/10/22 11:13:48;;;;;;;2.63;0.80;;;;;;;19.16;43.17;100467.72;4847269;29;20061;-59
2021/10/22 11:16:28;;;;;;;2.00;1.10;;;;;;;19.18;43.07;100473.78;4846837;29;20041;-61
2021/10/22 11:19:19;;;;;;;3.85;1.00;;;;;;;19.25;43.39;100467.84;4846700;29;20068;-62
2021/10/22 11:21:48;;;;;;;1.60;0.77;;;;;;;19.30;43.94;100470.09;4847028;29;20037;-59
2021/10/22 11:24:26;;;;;;;3.13;0.88;;;;;;;19.27;43.69;100473.88;4846989;29;20041;-55
2021/10/22 11:27:11;;;;;;;3.65;0.70;;;;;;;19.22;43.52;100473.66;4846697;29;20112;-60
2021/10/22 11:29:52;;;;;;;1.60;0.90;;;;;;;19.17;44.32;100463.63;4846808;29;20018;-56
2021/10/22 11:32:23;;;;;;;3.30;0.80;;;;;;;19.13;43.40;100477.19;4846942;29;20022;-57
2021/10/22 11:34:52;;;;;;;2.40;0.85;;;;;;;19.10;43.61;100472.44;4847046;29;20030;-57